createdAt,value
2022-10-17T00:00:34.559Z,21.50
2022-10-17T00:03:02.077Z,21.50
2022-10-17T00:05:28.835Z,21.50
2022-10-17T00:07:55.910Z,21.50
2022-10-17T00:10:22.880Z,21.50
2022-10-17T00:12:51.599Z,21.40
2022-10-17T00:15:20.517Z,21.40
2022-10-17T00:17:47.384Z,21.40
2022-10-17T00:20:14.986Z,21.40
2022-10-17T00:22:42.640Z,21.40
2022-10-17T00:25:09.913Z,21.40
2022-10-17T00:27:37.972Z,21.40
2022-10-17T00:30:06.187Z,21.40
2022-10-17T00:32:33.042Z,21.40
2022-10-17T00:34:59.836Z,21.40
2022-10-17T00:37:26.583Z,21.50
2022-10-17T00:39:54.437Z,21.50
2022-10-17T00:42:22.065Z,21.50
2022-10-17T00:44:48.749Z,21.50
2022-10-17T00:47:19.557Z,21.50
2022-10-17T00:49:47.095Z,21.50
2022-10-17T00:52:17.818Z,21.50
2022-10-17T00:54:51.846Z,21.50
2022-10-17T00:57:18.785Z,21.50
2022-10-17T00:59:50.949Z,21.50
2022-10-17T01:02:20.617Z,21.50
2022-10-17T01:04:50.164Z,21.50
2022-10-17T01:07:17.443Z,21.60
2022-10-17T01:09:45.706Z,21.60
2022-10-17T01:12:18.368Z,21.60
2022-10-17T01:15:03.221Z,21.60
2022-10-17T01:17:35.991Z,21.60
2022-10-17T01:20:42.906Z,21.50
2022-10-17T01:23:30.795Z,21.60
2022-10-17T01:26:16.301Z,21.60
2022-10-17T01:29:00.877Z,21.60
2022-10-17T01:31:52.542Z,21.70
2022-10-17T01:34:33.568Z,21.70
2022-10-17T01:37:14.768Z,21.70
2022-10-17T01:40:26.600Z,21.70
2022-10-17T01:43:03.534Z,21.80
2022-10-17T01:45:40.478Z,21.80
2022-10-17T01:48:17.447Z,21.80
2022-10-17T01:50:54.954Z,21.90
2022-10-17T01:53:31.827Z,21.90
2022-10-17T01:56:02.727Z,21.90
2022-10-17T01:58:42.014Z,22.00
2022-10-17T02:01:11.501Z,22.00
2022-10-17T02:03:40.944Z,22.00
2022-10-17T02:06:07.887Z,22.00
2022-10-17T02:08:42.274Z,22.10
2022-10-17T02:11:16.745Z,22.10
2022-10-17T02:13:52.322Z,22.10
2022-10-17T02:16:43.441Z,22.10
2022-10-17T02:19:15.952Z,22.10
2022-10-17T02:22:05.802Z,22.20
2022-10-17T02:24:38.605Z,22.20
2022-10-17T02:27:28.052Z,22.20
2022-10-17T02:30:35.246Z,22.20
2022-10-17T02:33:26.240Z,22.30
2022-10-17T02:35:56.857Z,22.30
2022-10-17T02:38:26.757Z,22.30
2022-10-17T02:40:54.066Z,22.30
2022-10-17T02:43:21.907Z,22.30
2022-10-17T02:45:50.101Z,22.30
2022-10-17T02:48:37.805Z,22.40
2022-10-17T02:51:34.404Z,22.40
2022-10-17T02:54:08.355Z,22.40
2022-10-17T02:56:41.331Z,22.40
2022-10-17T02:59:12.331Z,22.40
2022-10-17T03:01:39.269Z,22.40
2022-10-17T03:04:12.729Z,22.50
2022-10-17T03:06:41.182Z,22.50
2022-10-17T03:09:08.385Z,22.50
2022-10-17T03:11:35.300Z,22.60
2022-10-17T03:14:02.124Z,22.60
2022-10-17T03:16:29.102Z,22.60
2022-10-17T03:18:56.226Z,22.60
2022-10-17T03:21:22.995Z,22.60
2022-10-17T03:23:49.788Z,22.70
2022-10-17T03:26:16.545Z,22.70
2022-10-17T03:28:43.488Z,22.70
2022-10-17T03:31:12.964Z,22.80
2022-10-17T03:33:39.703Z,22.80
2022-10-17T03:36:15.400Z,22.80
2022-10-17T03:38:43.468Z,22.90
2022-10-17T03:41:10.569Z,22.90
2022-10-17T03:43:37.535Z,22.90
2022-10-17T03:46:07.394Z,22.80
2022-10-17T03:48:34.352Z,22.80
2022-10-17T03:51:05.856Z,22.80
2022-10-17T03:53:33.061Z,22.80
2022-10-17T03:56:14.494Z,22.80
2022-10-17T03:58:41.914Z,22.90
2022-10-17T04:01:11.616Z,22.80
2022-10-17T04:03:38.763Z,22.80
2022-10-17T04:06:06.680Z,22.80
2022-10-17T04:08:34.541Z,22.90
2022-10-17T04:11:02.942Z,22.90
2022-10-17T04:13:30.827Z,22.90
2022-10-17T04:16:02.663Z,22.90
2022-10-17T04:18:29.512Z,22.90
2022-10-17T04:20:56.727Z,22.90
2022-10-17T04:23:23.728Z,22.90
2022-10-17T04:25:50.506Z,22.90
2022-10-17T04:28:17.329Z,22.90
2022-10-17T04:30:45.555Z,22.90
2022-10-17T04:33:12.546Z,22.90
2022-10-17T04:35:39.309Z,22.90
2022-10-17T04:38:06.045Z,22.90
2022-10-17T04:40:32.835Z,22.90
2022-10-17T04:42:59.669Z,22.90
2022-10-17T04:45:26.405Z,22.90
2022-10-17T04:47:53.181Z,22.90
2022-10-17T04:50:19.922Z,22.90
2022-10-17T04:52:46.679Z,22.80
2022-10-17T04:55:13.404Z,22.80
2022-10-17T04:57:40.192Z,22.90
2022-10-17T05:02:41.201Z,22.80
2022-10-17T05:05:08.456Z,22.80
2022-10-17T05:07:35.231Z,22.80
2022-10-17T05:10:02.186Z,22.90
2022-10-17T05:12:29.299Z,22.90
2022-10-17T05:14:56.213Z,22.90
2022-10-17T05:17:22.917Z,22.90
2022-10-17T05:19:49.665Z,22.90
2022-10-17T05:22:16.414Z,22.90
2022-10-17T05:24:43.140Z,22.90
2022-10-17T05:31:04.929Z,22.90
2022-10-17T05:33:31.978Z,22.90
2022-10-17T05:35:59.276Z,22.90
2022-10-17T05:38:26.894Z,22.90
2022-10-17T05:40:58.653Z,23.00
2022-10-17T05:43:25.822Z,23.00
2022-10-17T05:45:52.744Z,23.00
2022-10-17T05:48:20.235Z,23.00
2022-10-17T05:50:47.399Z,23.00
2022-10-17T05:53:14.242Z,23.00
2022-10-17T05:55:41.177Z,23.00
2022-10-17T05:58:07.981Z,23.10
2022-10-17T06:00:34.963Z,23.10
2022-10-17T06:03:01.770Z,23.10
2022-10-17T06:05:28.590Z,23.20
2022-10-17T06:07:58.307Z,23.10
2022-10-17T06:10:27.969Z,23.10
2022-10-17T06:12:54.751Z,23.20
2022-10-17T06:15:21.479Z,23.20
2022-10-17T06:17:48.272Z,23.10
2022-10-17T06:20:15.106Z,23.20
2022-10-17T06:22:41.923Z,23.20
2022-10-17T06:25:09.195Z,23.20
2022-10-17T06:27:35.921Z,23.20
2022-10-17T06:30:02.768Z,23.30
2022-10-17T06:32:29.764Z,23.20
2022-10-17T06:34:56.707Z,23.30
2022-10-17T06:37:23.448Z,23.30
2022-10-17T06:39:50.214Z,23.30
2022-10-17T06:42:17.030Z,23.30
2022-10-17T06:44:43.793Z,23.30
2022-10-17T06:47:11.296Z,23.30
2022-10-17T06:49:38.350Z,23.30
2022-10-17T06:52:05.344Z,23.30
2022-10-17T06:54:32.368Z,23.30
2022-10-17T06:56:59.087Z,23.30
2022-10-17T06:59:25.825Z,23.40
2022-10-17T07:01:52.576Z,23.40
2022-10-17T07:04:19.718Z,23.60
2022-10-17T07:06:46.533Z,23.50
2022-10-17T07:09:14.128Z,23.50
2022-10-17T07:11:40.898Z,23.50
2022-10-17T07:14:07.672Z,23.50
2022-10-17T07:16:34.950Z,23.50
2022-10-17T07:19:01.799Z,23.50
2022-10-17T07:21:28.705Z,23.50
2022-10-17T07:23:55.445Z,23.50
2022-10-17T07:26:22.407Z,23.60
2022-10-17T07:28:53.240Z,23.60
2022-10-17T07:31:21.419Z,23.60
2022-10-17T07:33:48.880Z,23.60
2022-10-17T07:36:15.898Z,23.60
2022-10-17T07:38:42.771Z,23.60
2022-10-17T07:41:11.468Z,23.70
2022-10-17T07:43:38.808Z,23.80
2022-10-17T07:46:06.404Z,23.70
2022-10-17T07:48:33.412Z,23.70
2022-10-17T07:51:05.043Z,23.80
2022-10-17T07:53:31.966Z,23.80
2022-10-17T07:55:59.022Z,23.80
2022-10-17T07:58:26.006Z,23.80
2022-10-17T08:00:53.022Z,23.80
2022-10-17T08:03:19.904Z,23.80
2022-10-17T08:05:46.696Z,23.80
2022-10-17T08:08:13.459Z,23.80
2022-10-17T08:10:40.274Z,23.70
2022-10-17T08:13:07.332Z,23.80
2022-10-17T08:15:34.062Z,23.70
2022-10-17T08:18:00.800Z,23.70
2022-10-17T08:20:27.614Z,23.80
2022-10-17T08:22:55.310Z,23.80
2022-10-17T08:25:22.771Z,23.80
2022-10-17T08:27:49.978Z,23.80
2022-10-17T08:30:17.548Z,23.80
2022-10-17T08:32:44.486Z,23.70
2022-10-17T08:35:11.530Z,23.70
2022-10-17T08:37:38.310Z,23.70
2022-10-17T08:40:05.801Z,23.70
2022-10-17T08:43:19.870Z,23.70
2022-10-17T08:45:53.482Z,23.80
2022-10-17T08:48:24.245Z,23.80
2022-10-17T08:50:59.213Z,23.90
2022-10-17T08:53:35.087Z,23.90
2022-10-17T08:56:19.618Z,24.00
2022-10-17T08:58:51.771Z,24.10
2022-10-17T09:01:42.485Z,24.10
2022-10-17T09:07:17.382Z,24.10
2022-10-17T09:10:02.070Z,24.10
2022-10-17T09:13:05.355Z,24.00
2022-10-17T09:15:51.030Z,24.00
2022-10-17T09:18:42.766Z,24.00
2022-10-17T09:21:14.854Z,23.90
2022-10-17T09:23:59.669Z,23.90
2022-10-17T09:26:36.490Z,23.90
2022-10-17T09:29:10.783Z,23.90
2022-10-17T09:31:52.313Z,23.90
2022-10-17T09:34:20.376Z,24.00
2022-10-17T09:36:48.691Z,23.90
2022-10-17T09:39:19.478Z,24.00
2022-10-17T09:41:55.509Z,24.00
2022-10-17T09:44:25.938Z,23.90
2022-10-17T09:47:13.395Z,23.90
2022-10-17T09:49:45.834Z,24.00
2022-10-17T09:52:27.790Z,24.00
2022-10-17T09:55:06.744Z,24.00
2022-10-17T09:57:58.110Z,24.10
2022-10-17T10:00:31.876Z,24.10
2022-10-17T10:03:26.107Z,24.10
2022-10-17T10:06:06.606Z,24.10
2022-10-17T10:08:49.535Z,24.10
2022-10-17T10:11:17.785Z,24.00
2022-10-17T10:13:47.316Z,24.10
2022-10-17T10:16:21.487Z,24.00
2022-10-17T10:18:50.943Z,24.00
2022-10-17T10:21:23.462Z,24.10
2022-10-17T10:24:08.804Z,24.10
2022-10-17T10:26:42.610Z,24.10
2022-10-17T10:29:31.296Z,24.10
2022-10-17T10:32:23.884Z,24.20
2022-10-17T10:34:56.726Z,24.30
2022-10-17T10:37:37.210Z,24.30
2022-10-17T10:40:20.111Z,24.30
2022-10-17T10:42:49.530Z,24.40
2022-10-17T10:45:50.036Z,24.40
2022-10-17T10:48:20.773Z,24.50
2022-10-17T10:51:14.075Z,24.50
2022-10-17T10:54:01.555Z,24.60
2022-10-17T10:56:38.883Z,24.50
2022-10-17T10:59:08.705Z,24.50
2022-10-17T11:01:56.592Z,24.50
2022-10-17T11:04:41.103Z,24.40
2022-10-17T11:07:35.011Z,24.40
2022-10-17T11:10:20.574Z,24.30
2022-10-17T11:13:10.222Z,24.30
2022-10-17T11:15:49.635Z,24.30
2022-10-17T11:18:35.213Z,24.30
2022-10-17T11:21:16.749Z,24.40
2022-10-17T11:23:48.603Z,24.40
2022-10-17T11:26:26.755Z,24.40
2022-10-17T11:29:06.555Z,24.40
2022-10-17T11:31:39.368Z,24.40
2022-10-17T11:34:20.139Z,24.50
2022-10-17T11:36:50.950Z,24.50
2022-10-17T11:39:28.098Z,24.40
2022-10-17T11:42:07.185Z,24.40
2022-10-17T11:44:39.565Z,24.40
2022-10-17T11:47:14.919Z,24.30
2022-10-17T11:49:51.041Z,24.30
2022-10-17T11:55:26.356Z,24.20
2022-10-17T11:58:31.758Z,24.30
2022-10-17T12:01:22.778Z,24.30
2022-10-17T12:04:14.047Z,24.40
2022-10-17T12:06:52.435Z,24.40
2022-10-17T12:09:22.337Z,24.40
2022-10-17T12:11:58.547Z,24.40
2022-10-17T12:14:41.566Z,24.50
2022-10-17T12:17:32.988Z,24.50
2022-10-17T12:20:24.915Z,24.50
2022-10-17T12:23:03.210Z,24.50
2022-10-17T12:25:33.736Z,24.50
2022-10-17T12:28:06.562Z,24.50
2022-10-17T12:30:34.486Z,24.50
2022-10-17T12:33:11.455Z,24.60
2022-10-17T12:35:39.606Z,24.60
2022-10-17T12:38:18.273Z,24.60
2022-10-17T12:40:49.098Z,24.60
2022-10-17T12:43:15.992Z,24.60
2022-10-17T12:45:53.028Z,24.60
2022-10-17T12:48:34.799Z,24.60
2022-10-17T12:51:34.672Z,24.60
2022-10-17T12:53:59.200Z,24.60
2022-10-17T12:56:44.452Z,24.60
2022-10-17T12:59:24.453Z,24.60
2022-10-17T13:01:57.874Z,24.60
2022-10-17T13:04:25.671Z,24.60
2022-10-17T13:06:55.527Z,24.60
2022-10-17T13:09:42.574Z,24.60
2022-10-17T13:12:14.972Z,24.60
2022-10-17T13:14:43.561Z,24.60
2022-10-17T13:17:26.133Z,24.60
2022-10-17T13:19:53.398Z,24.50
2022-10-17T13:22:26.998Z,24.50
2022-10-17T13:25:08.542Z,24.50
2022-10-17T13:27:37.158Z,24.50
2022-10-17T13:30:24.788Z,24.60
2022-10-17T13:32:53.976Z,24.60
2022-10-17T13:36:00.374Z,24.60
2022-10-17T13:38:32.794Z,24.70
2022-10-17T13:41:16.890Z,24.70
2022-10-17T13:43:49.581Z,24.70
2022-10-17T13:46:37.424Z,24.70
2022-10-17T13:49:25.913Z,24.80
2022-10-17T13:51:55.868Z,24.80
2022-10-17T13:54:53.729Z,24.70
2022-10-17T13:57:26.238Z,24.80
2022-10-17T13:59:58.141Z,24.80
2022-10-17T14:02:30.433Z,24.70
2022-10-17T14:05:19.684Z,24.80
2022-10-17T14:10:41.244Z,24.80
2022-10-17T14:13:17.839Z,24.80
2022-10-17T14:15:46.427Z,24.80
2022-10-17T14:18:25.835Z,24.80
2022-10-17T14:21:36.879Z,24.80
2022-10-17T14:23:43.285Z,24.80
2022-10-17T14:26:46.345Z,24.80
2022-10-17T14:29:28.880Z,24.90
2022-10-17T14:32:15.237Z,24.90
2022-10-17T14:34:42.176Z,24.90
2022-10-17T14:37:18.419Z,24.90
2022-10-17T14:39:50.493Z,24.90
2022-10-17T14:42:22.537Z,24.90
2022-10-17T14:44:51.120Z,24.90
2022-10-17T14:47:42.597Z,24.80
2022-10-17T14:50:21.202Z,24.80
2022-10-17T14:53:21.599Z,24.80
2022-10-17T14:55:57.396Z,24.90
2022-10-17T14:58:34.376Z,24.90
2022-10-17T15:01:02.422Z,24.90
2022-10-17T15:03:29.198Z,24.90
2022-10-17T15:05:56.221Z,24.90
2022-10-17T15:08:24.235Z,24.90
2022-10-17T15:10:51.572Z,24.80
2022-10-17T15:13:40.979Z,24.80
2022-10-17T15:16:22.956Z,24.80
2022-10-17T15:18:50.707Z,24.90
2022-10-17T15:21:33.712Z,24.90
2022-10-17T15:24:06.115Z,24.90
2022-10-17T15:26:34.257Z,25.00
2022-10-17T15:29:02.261Z,24.90
2022-10-17T15:31:31.280Z,24.90
2022-10-17T15:33:58.068Z,24.90
2022-10-17T15:36:29.228Z,24.90
2022-10-17T15:38:59.115Z,24.90
2022-10-17T15:41:27.731Z,24.80
2022-10-17T15:43:54.602Z,24.80
2022-10-17T15:46:33.927Z,24.80
2022-10-17T15:49:17.173Z,24.80
2022-10-17T15:51:44.222Z,24.80
2022-10-17T15:56:43.539Z,24.80
2022-10-17T15:59:18.446Z,24.80
2022-10-17T16:01:46.023Z,24.80
2022-10-17T16:04:15.438Z,24.80
2022-10-17T16:06:43.026Z,24.80
2022-10-17T16:09:10.748Z,24.80
2022-10-17T16:11:40.507Z,24.80
2022-10-17T16:14:15.545Z,24.70
2022-10-17T16:16:42.727Z,24.70
2022-10-17T16:19:09.689Z,24.70
2022-10-17T16:21:39.169Z,24.70
2022-10-17T16:24:06.434Z,24.60
2022-10-17T16:26:33.300Z,24.60
2022-10-17T16:29:02.885Z,24.60
2022-10-17T16:31:35.644Z,24.60
2022-10-17T16:34:03.965Z,24.60
2022-10-17T16:36:30.901Z,24.60
2022-10-17T16:38:58.140Z,24.50
2022-10-17T16:41:25.898Z,24.50
2022-10-17T16:43:54.422Z,24.50
2022-10-17T16:46:22.461Z,24.50
2022-10-17T16:48:49.585Z,24.50
2022-10-17T16:51:18.388Z,24.50
2022-10-17T16:53:46.509Z,24.50
2022-10-17T16:56:24.438Z,24.50
2022-10-17T16:58:51.919Z,24.40
2022-10-17T17:01:21.454Z,24.40
2022-10-17T17:03:48.482Z,24.40
2022-10-17T17:06:19.122Z,24.40
2022-10-17T17:08:46.250Z,24.40
2022-10-17T17:11:14.953Z,24.30
2022-10-17T17:13:42.089Z,24.30
2022-10-17T17:16:11.682Z,24.30
2022-10-17T17:18:38.859Z,24.30
2022-10-17T17:21:07.162Z,24.30
2022-10-17T17:23:40.922Z,24.30
2022-10-17T17:26:16.418Z,24.30
2022-10-17T17:28:43.899Z,24.30
2022-10-17T17:31:22.380Z,24.20
2022-10-17T17:33:50.052Z,24.30
2022-10-17T17:36:22.693Z,24.30
2022-10-17T17:38:51.101Z,24.30
2022-10-17T17:41:19.367Z,24.20
2022-10-17T17:43:47.326Z,24.20
2022-10-17T17:46:16.564Z,24.20
2022-10-17T17:48:47.033Z,24.20
2022-10-17T17:51:15.821Z,24.20
2022-10-17T17:53:42.778Z,24.20
2022-10-17T17:56:18.379Z,24.10
2022-10-17T17:58:46.600Z,24.10
2022-10-17T18:01:18.914Z,24.10
2022-10-17T18:03:46.402Z,24.10
2022-10-17T18:06:13.536Z,24.10
2022-10-17T18:08:40.352Z,24.10
2022-10-17T18:11:07.190Z,24.10
2022-10-17T18:13:33.967Z,24.10
2022-10-17T18:16:01.823Z,24.10
2022-10-17T18:18:30.489Z,24.10
2022-10-17T18:21:00.886Z,24.10
2022-10-17T18:23:27.697Z,24.00
2022-10-17T18:26:01.546Z,24.00
2022-10-17T18:28:28.637Z,24.00
2022-10-17T18:30:58.038Z,24.00
2022-10-17T18:33:25.101Z,24.00
2022-10-17T18:35:51.860Z,24.00
2022-10-17T18:38:18.589Z,23.90
2022-10-17T18:40:47.351Z,23.90
2022-10-17T18:43:16.781Z,23.90
2022-10-17T18:45:43.653Z,23.80
2022-10-17T18:48:10.471Z,23.80
2022-10-17T18:50:39.324Z,23.80
2022-10-17T18:53:06.060Z,23.80
2022-10-17T18:55:32.797Z,23.80
2022-10-17T18:58:00.708Z,23.80
2022-10-17T19:00:27.460Z,23.80
2022-10-17T19:02:54.290Z,23.80
2022-10-17T19:05:21.169Z,23.80
2022-10-17T19:07:47.976Z,23.80
2022-10-17T19:10:14.817Z,23.80
2022-10-17T19:12:41.605Z,23.80
2022-10-17T19:15:08.626Z,23.70
2022-10-17T19:17:35.380Z,23.70
2022-10-17T19:20:02.162Z,23.70
2022-10-17T19:22:30.371Z,23.70
2022-10-17T19:24:57.174Z,23.70
2022-10-17T19:27:23.960Z,23.70
2022-10-17T19:29:50.693Z,23.70
2022-10-17T19:32:20.635Z,23.70
2022-10-17T19:34:49.760Z,23.70
2022-10-17T19:37:16.548Z,23.70
2022-10-17T19:39:43.397Z,23.70
2022-10-17T19:42:10.402Z,23.70
2022-10-17T19:44:37.428Z,23.70
2022-10-17T19:47:04.246Z,23.70
2022-10-17T19:49:31.072Z,23.70
2022-10-17T19:51:57.854Z,23.70
2022-10-17T19:54:24.796Z,23.70
2022-10-17T19:56:51.545Z,23.60
2022-10-17T19:59:18.932Z,23.60
2022-10-17T20:01:46.193Z,23.60
2022-10-17T20:04:13.496Z,23.50
2022-10-17T20:06:41.078Z,23.50
2022-10-17T20:09:11.177Z,23.50
2022-10-17T20:11:41.086Z,23.50
2022-10-17T20:14:08.489Z,23.50
2022-10-17T20:16:37.085Z,23.50
2022-10-17T20:19:10.857Z,23.50
2022-10-17T20:21:39.793Z,23.60
2022-10-17T20:24:09.524Z,23.50
2022-10-17T20:26:38.580Z,23.50
2022-10-17T20:29:11.840Z,23.50
2022-10-17T20:31:40.236Z,23.50
2022-10-17T20:34:07.168Z,23.40
2022-10-17T20:36:36.983Z,23.40
2022-10-17T20:39:05.306Z,23.40
2022-10-17T20:41:32.233Z,23.40
2022-10-17T20:43:59.183Z,23.40
2022-10-17T20:49:18.659Z,23.30
2022-10-17T20:51:46.094Z,23.40
2022-10-17T20:54:13.110Z,23.40
2022-10-17T20:56:40.223Z,23.40
2022-10-17T20:59:12.323Z,23.30
2022-10-17T21:01:39.141Z,23.30
2022-10-17T21:04:33.185Z,23.30
2022-10-17T21:06:53.526Z,23.30
2022-10-17T21:09:21.139Z,23.30
2022-10-17T21:11:51.311Z,23.30
2022-10-17T21:14:18.735Z,23.20
2022-10-17T21:16:45.586Z,23.20
2022-10-17T21:19:13.256Z,23.20
2022-10-17T21:21:41.949Z,23.30
2022-10-17T21:24:14.180Z,23.30
2022-10-17T21:26:42.465Z,23.30
2022-10-17T21:29:10.230Z,23.30
2022-10-17T21:31:38.593Z,23.30
2022-10-17T21:34:11.220Z,23.20
2022-10-17T21:36:38.400Z,23.30
2022-10-17T21:39:05.816Z,23.20
2022-10-17T21:41:33.370Z,23.20
2022-10-17T21:44:05.835Z,23.30
2022-10-17T21:46:33.490Z,23.30
2022-10-17T21:49:01.093Z,23.30
2022-10-17T21:51:28.489Z,23.30
2022-10-17T21:53:57.415Z,23.30
2022-10-17T21:56:28.759Z,23.30
2022-10-17T21:58:56.445Z,23.30
2022-10-17T22:01:28.953Z,23.30
2022-10-17T22:03:57.988Z,23.30
2022-10-17T22:06:42.534Z,23.20
2022-10-17T22:09:17.781Z,23.30
2022-10-17T22:11:46.753Z,23.30
2022-10-17T22:14:16.079Z,23.30
2022-10-17T22:16:45.296Z,23.30
2022-10-17T22:19:13.994Z,23.30
2022-10-17T22:21:40.832Z,23.30
2022-10-17T22:24:10.697Z,23.30
2022-10-17T22:26:38.504Z,23.30
2022-10-17T22:29:07.133Z,23.30
2022-10-17T22:31:34.740Z,23.30
2022-10-17T22:34:01.490Z,23.30
2022-10-17T22:36:28.219Z,23.30
2022-10-17T22:38:55.047Z,23.30
2022-10-17T22:41:22.776Z,23.30
2022-10-17T22:43:49.527Z,23.30
2022-10-17T22:46:17.025Z,23.30
2022-10-17T22:48:43.981Z,23.30
2022-10-17T22:51:11.275Z,23.30
2022-10-17T22:53:38.410Z,23.30
2022-10-17T22:56:11.159Z,23.30
2022-10-17T22:58:38.478Z,23.30
2022-10-17T23:01:06.448Z,23.30
2022-10-17T23:03:34.669Z,23.30
2022-10-17T23:06:01.859Z,23.30
2022-10-17T23:08:28.854Z,23.30
2022-10-17T23:10:55.829Z,23.30
2022-10-17T23:13:22.781Z,23.20
2022-10-17T23:15:54.431Z,23.20
2022-10-17T23:18:22.362Z,23.20
2022-10-17T23:20:49.772Z,23.20
2022-10-17T23:23:17.151Z,23.20
2022-10-17T23:25:44.387Z,23.20
2022-10-17T23:28:11.648Z,23.20
2022-10-17T23:30:39.267Z,23.20
2022-10-17T23:33:06.917Z,23.20
2022-10-17T23:35:35.522Z,23.20
2022-10-17T23:38:02.713Z,23.20
2022-10-17T23:40:29.919Z,23.20
2022-10-17T23:42:56.762Z,23.20
2022-10-17T23:45:23.622Z,23.20
2022-10-17T23:47:50.512Z,23.20
2022-10-17T23:50:17.436Z,23.20
2022-10-17T23:52:44.194Z,23.20
2022-10-17T23:55:11.193Z,23.20
2022-10-17T23:57:38.066Z,23.20
